createdAt,value
2022-09-02T00:01:40.605Z,0.60
2022-09-02T00:04:15.948Z,0.70
2022-09-02T00:06:45.593Z,0.80
2022-09-02T00:09:16.408Z,0.82
2022-09-02T00:11:46.211Z,0.68
2022-09-02T00:14:19.991Z,0.68
2022-09-02T00:16:51.030Z,0.70
2022-09-02T00:19:25.282Z,0.80
2022-09-02T00:21:55.029Z,0.75
2022-09-02T00:24:23.637Z,0.80
2022-09-02T00:26:50.572Z,0.70
2022-09-02T00:29:22.276Z,1.10
2022-09-02T00:31:49.218Z,0.73
2022-09-02T00:34:16.297Z,0.70
2022-09-02T00:36:43.647Z,0.52
2022-09-02T00:39:10.967Z,0.60
2022-09-02T00:41:40.651Z,0.60
2022-09-02T00:44:13.993Z,0.80
2022-09-02T00:46:41.647Z,0.70
2022-09-02T00:49:24.923Z,0.80
2022-09-02T00:52:19.552Z,1.05
2022-09-02T00:54:53.924Z,0.70
2022-09-02T00:57:27.137Z,0.77
2022-09-02T01:00:17.800Z,0.82
2022-09-02T01:02:50.767Z,0.60
2022-09-02T01:05:21.244Z,0.70
2022-09-02T01:07:48.267Z,0.85
2022-09-02T01:10:24.163Z,0.63
2022-09-02T01:12:57.897Z,0.70
2022-09-02T01:15:26.654Z,0.70
2022-09-02T01:17:54.315Z,0.93
2022-09-02T01:20:26.009Z,0.90
2022-09-02T01:22:54.803Z,0.82
2022-09-02T01:25:26.968Z,0.70
2022-09-02T01:28:07.522Z,0.88
2022-09-02T01:30:37.965Z,0.57
2022-09-02T01:33:05.286Z,0.77
2022-09-02T01:35:32.413Z,0.80
2022-09-02T01:38:01.471Z,0.52
2022-09-02T01:40:31.217Z,0.70
2022-09-02T01:43:10.865Z,0.65
2022-09-02T01:45:41.623Z,0.77
2022-09-02T01:48:12.438Z,0.55
2022-09-02T01:50:47.027Z,0.70
2022-09-02T01:53:15.543Z,0.70
2022-09-02T01:55:43.435Z,0.70
2022-09-02T01:58:11.591Z,0.80
2022-09-02T02:00:39.100Z,0.80
2022-09-02T02:03:06.229Z,1.00
2022-09-02T02:05:33.351Z,0.90
2022-09-02T02:08:01.095Z,0.70
2022-09-02T02:10:28.358Z,0.70
2022-09-02T02:12:55.335Z,1.27
2022-09-02T02:17:50.543Z,0.60
2022-09-02T02:20:20.288Z,0.90
2022-09-02T02:22:48.325Z,0.73
2022-09-02T02:25:16.557Z,0.77
2022-09-02T02:27:44.039Z,0.70
2022-09-02T02:30:16.352Z,0.70
2022-09-02T02:32:47.187Z,0.70
2022-09-02T02:35:20.066Z,0.70
2022-09-02T02:37:50.084Z,0.82
2022-09-02T02:40:21.616Z,0.77
2022-09-02T02:42:50.315Z,0.85
2022-09-02T02:45:17.168Z,0.70
2022-09-02T02:47:47.004Z,0.60
2022-09-02T02:50:18.788Z,0.50
2022-09-02T02:52:48.798Z,0.57
2022-09-02T02:55:17.532Z,0.70
2022-09-02T02:57:44.859Z,0.82
2022-09-02T03:00:16.429Z,0.60
2022-09-02T03:02:43.482Z,0.50
2022-09-02T03:05:13.558Z,0.63
2022-09-02T03:07:41.475Z,0.60
2022-09-02T03:10:12.747Z,0.75
2022-09-02T03:12:41.611Z,0.65
2022-09-02T03:15:11.179Z,0.77
2022-09-02T03:17:39.406Z,0.70
2022-09-02T03:20:07.884Z,0.60
2022-09-02T03:22:40.071Z,0.90
2022-09-02T03:25:10.700Z,0.85
2022-09-02T03:27:40.137Z,0.93
2022-09-02T03:30:11.251Z,0.95
2022-09-02T03:32:38.309Z,0.88
2022-09-02T03:35:10.442Z,0.80
2022-09-02T03:37:38.668Z,0.57
2022-09-02T03:40:11.651Z,0.70
2022-09-02T03:42:38.700Z,0.68
2022-09-02T03:45:10.169Z,0.70
2022-09-02T03:47:43.806Z,0.60
2022-09-02T03:50:11.457Z,0.70
2022-09-02T03:52:38.432Z,0.70
2022-09-02T03:55:06.525Z,0.70
2022-09-02T03:57:36.161Z,0.85
2022-09-02T04:00:08.388Z,0.80
2022-09-02T04:02:41.994Z,0.70
2022-09-02T04:05:15.778Z,0.65
2022-09-02T04:07:46.958Z,0.75
2022-09-02T04:10:15.028Z,0.90
2022-09-02T04:12:42.207Z,0.80
2022-09-02T04:15:12.333Z,0.70
2022-09-02T04:17:42.373Z,0.80
2022-09-02T04:20:14.636Z,0.60
2022-09-02T04:22:41.671Z,0.63
2022-09-02T04:25:09.866Z,0.70
2022-09-02T04:27:38.163Z,1.08
2022-09-02T04:30:08.024Z,0.77
2022-09-02T04:32:40.690Z,0.63
2022-09-02T04:35:09.366Z,0.73
2022-09-02T04:37:37.333Z,0.82
2022-09-02T04:40:05.293Z,0.80
2022-09-02T04:42:34.064Z,0.60
2022-09-02T04:45:00.913Z,0.85
2022-09-02T04:47:28.227Z,0.90
2022-09-02T04:49:56.236Z,0.70
2022-09-02T04:52:23.824Z,0.90
2022-09-02T04:54:51.237Z,0.70
2022-09-02T04:57:18.247Z,0.80
2022-09-02T04:59:45.694Z,0.77
2022-09-02T05:02:12.888Z,0.70
2022-09-02T05:04:40.767Z,0.82
2022-09-02T05:07:16.100Z,0.73
2022-09-02T05:09:45.340Z,0.82
2022-09-02T05:12:13.258Z,0.90
2022-09-02T05:14:48.954Z,0.80
2022-09-02T05:17:17.798Z,0.88
2022-09-02T05:19:45.832Z,0.80
2022-09-02T05:22:15.965Z,0.95
2022-09-02T05:24:44.151Z,0.80
2022-09-02T05:27:16.144Z,0.70
2022-09-02T05:29:45.490Z,0.80
2022-09-02T05:32:13.621Z,0.90
2022-09-02T05:34:40.709Z,0.70
2022-09-02T05:37:08.446Z,0.77
2022-09-02T05:39:36.708Z,1.00
2022-09-02T05:42:05.907Z,0.70
2022-09-02T05:44:33.674Z,0.75
2022-09-02T05:47:03.079Z,0.80
2022-09-02T05:49:30.264Z,0.90
2022-09-02T05:52:10.031Z,1.38
2022-09-02T05:54:40.833Z,1.05
2022-09-02T05:57:15.140Z,1.00
2022-09-02T05:59:55.861Z,0.80
2022-09-02T06:02:25.966Z,0.80
2022-09-02T06:04:54.680Z,0.70
2022-09-02T06:07:24.204Z,0.82
2022-09-02T06:09:53.437Z,0.90
2022-09-02T06:12:24.143Z,1.00
2022-09-02T06:14:51.081Z,0.95
2022-09-02T06:17:20.725Z,1.00
2022-09-02T06:19:53.005Z,0.70
2022-09-02T06:22:23.867Z,0.90
2022-09-02T06:24:52.383Z,1.00
2022-09-02T06:27:23.322Z,1.23
2022-09-02T06:29:52.548Z,0.80
2022-09-02T06:32:21.791Z,0.77
2022-09-02T06:34:51.026Z,0.90
2022-09-02T06:37:17.833Z,0.93
2022-09-02T06:39:46.811Z,0.98
2022-09-02T06:42:19.403Z,0.93
2022-09-02T06:45:07.909Z,1.10
2022-09-02T06:47:35.695Z,1.20
2022-09-02T06:50:02.858Z,1.20
2022-09-02T06:52:30.164Z,0.98
2022-09-02T06:54:57.132Z,1.40
2022-09-02T06:57:31.321Z,0.98
2022-09-02T07:00:09.898Z,0.82
2022-09-02T07:02:37.888Z,1.02
2022-09-02T07:05:15.053Z,1.20
2022-09-02T07:07:45.878Z,1.23
2022-09-02T07:10:16.248Z,1.00
2022-09-02T07:12:50.600Z,1.00
2022-09-02T07:15:18.139Z,1.05
2022-09-02T07:17:45.390Z,0.90
2022-09-02T07:20:26.244Z,1.60
2022-09-02T07:22:57.876Z,1.17
2022-09-02T07:25:27.287Z,0.88
2022-09-02T07:27:54.578Z,1.33
2022-09-02T07:30:22.567Z,1.00
2022-09-02T07:32:56.613Z,0.93
2022-09-02T07:35:24.873Z,1.02
2022-09-02T07:37:52.406Z,0.75
2022-09-02T07:40:21.961Z,1.15
2022-09-02T07:42:50.504Z,1.10
2022-09-02T07:45:19.402Z,1.00
2022-09-02T07:47:47.370Z,1.27
2022-09-02T07:50:19.597Z,1.45
2022-09-02T07:52:57.935Z,0.93
2022-09-02T07:55:26.942Z,1.33
2022-09-02T07:57:54.523Z,1.00
2022-09-02T08:00:23.076Z,1.13
2022-09-02T08:02:51.665Z,1.45
2022-09-02T08:05:25.192Z,1.00
2022-09-02T08:07:52.236Z,1.20
2022-09-02T08:10:20.700Z,1.25
2022-09-02T08:12:48.224Z,1.10
2022-09-02T08:15:16.291Z,1.23
2022-09-02T08:17:44.249Z,1.40
2022-09-02T08:20:13.512Z,1.40
2022-09-02T08:22:41.576Z,1.20
2022-09-02T08:25:09.456Z,1.52
2022-09-02T08:27:37.819Z,1.20
2022-09-02T08:30:09.796Z,1.00
2022-09-02T08:32:39.759Z,0.80
2022-09-02T08:35:09.359Z,1.05
2022-09-02T08:37:37.383Z,1.10
2022-09-02T08:40:13.547Z,1.48
2022-09-02T08:42:51.876Z,1.17
2022-09-02T08:45:37.602Z,1.33
2022-09-02T08:48:15.935Z,1.20
2022-09-02T08:50:46.628Z,1.30
2022-09-02T08:53:30.621Z,1.00
2022-09-02T08:55:59.916Z,1.23
2022-09-02T08:58:32.113Z,1.20
2022-09-02T09:01:41.894Z,1.45
2022-09-02T09:05:06.148Z,1.23
2022-09-02T09:07:50.966Z,1.25
2022-09-02T09:10:29.536Z,1.50
2022-09-02T09:13:44.565Z,1.10
2022-09-02T09:16:45.931Z,1.10
2022-09-02T09:19:37.224Z,1.50
2022-09-02T09:22:05.223Z,1.35
2022-09-02T09:24:44.130Z,1.92
2022-09-02T09:27:21.335Z,1.50
2022-09-02T09:29:51.099Z,1.35
2022-09-02T09:32:36.039Z,1.67
2022-09-02T09:35:12.499Z,1.48
2022-09-02T09:37:46.378Z,1.10
2022-09-02T09:40:21.985Z,1.60
2022-09-02T09:43:05.791Z,1.60
2022-09-02T09:45:48.126Z,1.20
2022-09-02T09:48:23.673Z,1.70
2022-09-02T09:50:56.372Z,1.50
2022-09-02T09:53:32.941Z,1.60
2022-09-02T09:56:06.620Z,1.50
2022-09-02T09:58:42.386Z,1.95
2022-09-02T10:01:24.097Z,2.38
2022-09-02T10:03:55.657Z,2.10
2022-09-02T10:06:30.796Z,1.85
2022-09-02T10:09:14.992Z,2.13
2022-09-02T10:12:01.676Z,1.92
2022-09-02T10:14:41.160Z,1.90
2022-09-02T10:17:45.614Z,1.55
2022-09-02T10:21:11.384Z,1.98
2022-09-02T10:24:09.196Z,2.20
2022-09-02T10:26:41.150Z,2.20
2022-09-02T10:29:39.495Z,2.05
2022-09-02T10:32:12.260Z,1.30
2022-09-02T10:34:54.967Z,1.80
2022-09-02T10:37:25.286Z,1.50
2022-09-02T10:40:09.284Z,1.33
2022-09-02T10:43:08.004Z,1.23
2022-09-02T10:45:51.004Z,1.65
2022-09-02T10:48:23.776Z,1.70
2022-09-02T10:51:37.303Z,1.70
2022-09-02T10:54:57.627Z,1.75
2022-09-02T10:57:35.631Z,1.92
2022-09-02T11:00:28.870Z,2.10
2022-09-02T11:03:24.660Z,1.70
2022-09-02T11:06:05.177Z,1.77
2022-09-02T11:08:48.872Z,1.80
2022-09-02T11:11:38.840Z,2.10
2022-09-02T11:14:30.286Z,1.63
2022-09-02T11:17:28.287Z,1.60
2022-09-02T11:20:12.626Z,1.90
2022-09-02T11:23:12.823Z,1.60
2022-09-02T11:25:57.337Z,1.63
2022-09-02T11:28:54.401Z,1.40
2022-09-02T11:31:38.891Z,1.70
2022-09-02T11:34:35.295Z,1.48
2022-09-02T11:37:06.744Z,1.80
2022-09-02T11:40:11.496Z,1.50
2022-09-02T11:43:33.425Z,1.40
2022-09-02T11:46:58.554Z,1.70
2022-09-02T11:50:13.759Z,2.10
2022-09-02T11:53:01.608Z,1.88
2022-09-02T11:55:50.232Z,1.52
2022-09-02T11:58:42.203Z,1.95
2022-09-02T12:01:14.762Z,1.30
2022-09-02T12:07:09.086Z,1.30
2022-09-02T12:09:52.422Z,1.40
2022-09-02T12:12:59.203Z,1.48
2022-09-02T12:15:26.628Z,1.50
2022-09-02T12:17:53.315Z,1.55
2022-09-02T12:20:41.224Z,1.52
2022-09-02T12:23:10.840Z,1.40
2022-09-02T12:25:56.341Z,1.42
2022-09-02T12:28:28.981Z,1.60
2022-09-02T12:30:56.289Z,1.25
2022-09-02T12:33:35.906Z,1.48
2022-09-02T12:36:08.037Z,1.13
2022-09-02T12:38:40.241Z,1.30
2022-09-02T12:41:08.684Z,1.50
2022-09-02T12:43:44.512Z,1.27
2022-09-02T12:46:43.635Z,1.95
2022-09-02T12:49:33.187Z,1.40
2022-09-02T12:52:08.405Z,1.38
2022-09-02T12:54:51.530Z,1.65
2022-09-02T12:57:19.546Z,1.70
2022-09-02T12:59:48.131Z,1.52
2022-09-02T13:03:01.715Z,1.55
2022-09-02T13:06:04.016Z,1.63
2022-09-02T13:08:57.141Z,1.20
2022-09-02T13:12:22.257Z,1.45
2022-09-02T13:15:26.704Z,1.23
2022-09-02T13:18:34.016Z,1.35
2022-09-02T13:21:34.105Z,2.00
2022-09-02T13:24:47.995Z,1.40
2022-09-02T13:27:52.089Z,1.50
2022-09-02T13:31:02.846Z,1.40
2022-09-02T13:33:30.259Z,1.67
2022-09-02T13:35:59.490Z,1.63
2022-09-02T13:38:29.942Z,1.58
2022-09-02T13:40:57.058Z,1.60
2022-09-02T13:43:27.050Z,1.50
2022-09-02T13:46:01.181Z,1.33
2022-09-02T13:48:33.359Z,1.70
2022-09-02T13:51:14.123Z,1.60
2022-09-02T13:53:59.408Z,1.50
2022-09-02T13:56:32.538Z,1.50
2022-09-02T13:58:59.484Z,1.55
2022-09-02T14:01:40.013Z,1.83
2022-09-02T14:04:15.599Z,1.40
2022-09-02T14:06:46.365Z,1.65
2022-09-02T14:09:29.604Z,1.90
2022-09-02T14:11:58.805Z,1.70
2022-09-02T14:14:26.616Z,1.63
2022-09-02T14:17:21.184Z,1.30
2022-09-02T14:19:48.782Z,1.58
2022-09-02T14:22:28.215Z,1.70
2022-09-02T14:24:56.361Z,1.70
2022-09-02T14:27:24.597Z,1.42
2022-09-02T14:29:58.212Z,2.13
2022-09-02T14:32:28.207Z,1.60
2022-09-02T14:35:20.659Z,1.70
2022-09-02T14:37:59.434Z,1.67
2022-09-02T14:40:43.268Z,1.30
2022-09-02T14:43:17.378Z,1.50
2022-09-02T14:45:49.577Z,1.17
2022-09-02T14:48:26.816Z,1.40
2022-09-02T14:51:05.434Z,1.73
2022-09-02T14:53:33.935Z,1.48
2022-09-02T14:56:00.999Z,1.60
2022-09-02T14:58:29.295Z,1.40
2022-09-02T15:01:00.298Z,1.20
2022-09-02T15:03:30.784Z,1.70
2022-09-02T15:05:57.859Z,1.70
2022-09-02T15:08:24.907Z,1.80
2022-09-02T15:10:57.938Z,1.55
2022-09-02T15:13:33.708Z,1.33
2022-09-02T15:16:02.656Z,1.70
2022-09-02T15:18:29.987Z,1.50
2022-09-02T15:20:57.476Z,1.48
2022-09-02T15:23:24.952Z,1.60
2022-09-02T15:25:54.098Z,1.40
2022-09-02T15:28:21.183Z,1.63
2022-09-02T15:30:48.177Z,1.60
2022-09-02T15:33:16.685Z,1.95
2022-09-02T15:35:46.764Z,1.30
2022-09-02T15:38:13.736Z,1.90
2022-09-02T15:40:40.556Z,1.70
2022-09-02T15:43:07.438Z,1.52
2022-09-02T15:45:35.109Z,1.80
2022-09-02T15:48:02.295Z,1.70
2022-09-02T15:50:32.264Z,1.70
2022-09-02T15:53:01.656Z,1.55
2022-09-02T15:55:33.074Z,1.90
2022-09-02T15:58:00.889Z,1.58
2022-09-02T16:00:28.538Z,1.95
2022-09-02T16:02:56.844Z,1.63
2022-09-02T16:05:24.097Z,1.88
2022-09-02T16:07:52.069Z,1.60
2022-09-02T16:10:18.871Z,1.50
2022-09-02T16:12:45.736Z,1.75
2022-09-02T16:15:12.532Z,1.60
2022-09-02T16:17:39.384Z,1.48
2022-09-02T16:20:06.664Z,1.55
2022-09-02T16:22:33.816Z,1.55
2022-09-02T16:25:01.893Z,1.50
2022-09-02T16:27:47.228Z,1.58
2022-09-02T16:30:14.219Z,1.42
2022-09-02T16:32:40.998Z,1.40
2022-09-02T16:35:08.782Z,1.30
2022-09-02T16:37:35.716Z,1.40
2022-09-02T16:40:04.105Z,1.60
2022-09-02T16:42:34.823Z,1.35
2022-09-02T16:45:05.464Z,1.38
2022-09-02T16:47:32.294Z,1.40
2022-09-02T16:49:59.086Z,1.38
2022-09-02T16:52:25.838Z,1.45
2022-09-02T16:54:52.617Z,1.65
2022-09-02T16:57:19.528Z,1.50
2022-09-02T16:59:46.344Z,1.73
2022-09-02T17:02:13.213Z,1.23
2022-09-02T17:04:40.031Z,1.52
2022-09-02T17:07:06.993Z,1.50
2022-09-02T17:09:33.819Z,1.40
2022-09-02T17:12:00.842Z,1.80
2022-09-02T17:14:27.712Z,1.50
2022-09-02T17:16:54.538Z,1.58
2022-09-02T17:19:22.501Z,1.70
2022-09-02T17:21:53.126Z,1.63
2022-09-02T17:24:24.114Z,1.60
2022-09-02T17:26:55.841Z,1.52
2022-09-02T17:32:14.656Z,1.98
2022-09-02T17:34:41.500Z,1.80
2022-09-02T17:37:08.344Z,2.20
2022-09-02T17:39:35.411Z,3.30
2022-09-02T17:42:07.002Z,2.78
2022-09-02T17:44:39.643Z,2.38
2022-09-02T17:47:21.024Z,1.73
2022-09-02T17:49:49.094Z,1.70
2022-09-02T17:52:20.464Z,1.48
2022-09-02T17:54:51.241Z,1.30
2022-09-02T17:57:46.124Z,1.60
2022-09-02T18:00:15.232Z,1.77
2022-09-02T18:03:24.004Z,1.60
2022-09-02T18:06:04.676Z,1.65
2022-09-02T18:08:43.079Z,1.70
2022-09-02T18:11:12.654Z,1.50
2022-09-02T18:13:57.332Z,1.70
2022-09-02T18:16:37.277Z,1.38
2022-09-02T18:19:13.659Z,1.38
2022-09-02T18:22:11.246Z,1.42
2022-09-02T18:25:01.424Z,1.20
2022-09-02T18:27:59.108Z,1.50
2022-09-02T18:31:01.477Z,1.40
2022-09-02T18:34:11.633Z,1.20
2022-09-02T18:37:43.431Z,1.70
2022-09-02T18:40:54.544Z,1.85
2022-09-02T18:43:51.232Z,1.45
2022-09-02T18:46:22.174Z,1.85
2022-09-02T18:48:53.188Z,1.40
2022-09-02T18:51:43.061Z,2.40
2022-09-02T18:54:22.688Z,1.40
2022-09-02T18:56:58.589Z,1.48
2022-09-02T18:59:47.122Z,1.40
2022-09-02T19:02:31.334Z,1.42
2022-09-02T19:05:01.631Z,1.50
2022-09-02T19:07:47.451Z,1.55
2022-09-02T19:10:14.680Z,1.35
2022-09-02T19:12:44.080Z,1.77
2022-09-02T19:15:13.880Z,1.40
2022-09-02T19:17:44.247Z,1.60
2022-09-02T19:20:11.324Z,1.77
2022-09-02T19:22:50.056Z,1.60
2022-09-02T19:25:22.979Z,1.40
2022-09-02T19:27:52.316Z,1.50
2022-09-02T19:30:22.445Z,1.40
2022-09-02T19:32:54.060Z,1.40
2022-09-02T19:35:27.519Z,1.27
2022-09-02T19:37:55.524Z,1.40
2022-09-02T19:40:28.013Z,1.42
2022-09-02T19:42:55.193Z,1.38
2022-09-02T19:45:23.242Z,1.52
2022-09-02T19:48:08.127Z,1.55
2022-09-02T19:50:42.443Z,1.25
2022-09-02T19:53:16.519Z,1.70
2022-09-02T19:55:43.402Z,1.55
2022-09-02T19:58:10.172Z,1.40
2022-09-02T20:00:39.847Z,1.50
2022-09-02T20:03:06.747Z,1.50
2022-09-02T20:05:33.688Z,1.70
2022-09-02T20:08:00.598Z,1.50
2022-09-02T20:10:27.661Z,1.40
2022-09-02T20:12:55.251Z,1.40
2022-09-02T20:15:22.285Z,1.25
2022-09-02T20:17:49.721Z,1.70
2022-09-02T20:20:22.583Z,1.85
2022-09-02T20:22:57.359Z,2.10
2022-09-02T20:25:39.771Z,1.27
2022-09-02T20:28:45.653Z,1.45
2022-09-02T20:31:59.290Z,1.98
2022-09-02T20:35:06.859Z,1.50
2022-09-02T20:38:17.744Z,1.45
2022-09-02T20:40:47.631Z,1.55
2022-09-02T20:43:51.391Z,1.35
2022-09-02T20:46:55.038Z,1.80
2022-09-02T20:50:15.307Z,1.40
2022-09-02T20:53:11.867Z,1.60
2022-09-02T20:56:25.028Z,1.48
2022-09-02T20:59:20.223Z,1.70
2022-09-02T21:01:49.841Z,1.70
2022-09-02T21:04:25.888Z,1.52
2022-09-02T21:07:09.150Z,2.05
2022-09-02T21:09:58.983Z,1.48
2022-09-02T21:12:41.136Z,1.70
2022-09-02T21:15:25.418Z,1.88
2022-09-02T21:18:10.752Z,1.50
2022-09-02T21:20:59.027Z,1.55
2022-09-02T21:23:45.275Z,1.55
2022-09-02T21:26:40.884Z,1.50
2022-09-02T21:29:30.382Z,1.45
2022-09-02T21:32:17.968Z,1.60
2022-09-02T21:35:08.789Z,1.70
2022-09-02T21:37:40.096Z,1.65
2022-09-02T21:40:21.342Z,1.50
2022-09-02T21:43:14.702Z,1.60
2022-09-02T21:46:26.385Z,1.25
2022-09-02T21:49:27.150Z,1.70
2022-09-02T21:52:00.060Z,1.73
2022-09-02T21:54:42.916Z,1.63
2022-09-02T21:57:48.736Z,1.48
2022-09-02T22:00:17.577Z,1.70
2022-09-02T22:02:59.960Z,1.65
2022-09-02T22:05:50.128Z,1.58
2022-09-02T22:08:40.134Z,1.50
2022-09-02T22:11:49.195Z,1.73
2022-09-02T22:14:35.453Z,1.58
2022-09-02T22:17:14.861Z,1.60
2022-09-02T22:19:43.681Z,1.50
2022-09-02T22:22:23.736Z,1.95
2022-09-02T22:24:51.956Z,1.63
2022-09-02T22:27:33.998Z,1.35
2022-09-02T22:30:16.477Z,1.80
2022-09-02T22:33:14.434Z,2.13
2022-09-02T22:36:05.555Z,1.60
2022-09-02T22:38:53.307Z,1.40
2022-09-02T22:41:47.648Z,1.58
2022-09-02T22:45:11.884Z,1.35
2022-09-02T22:48:06.892Z,1.30
2022-09-02T22:50:59.675Z,1.30
2022-09-02T22:53:29.494Z,1.58
2022-09-02T22:56:03.743Z,1.70
2022-09-02T22:58:51.295Z,1.98
2022-09-02T23:01:51.572Z,1.40
2022-09-02T23:05:31.600Z,1.30
2022-09-02T23:07:58.400Z,1.35
2022-09-02T23:10:26.870Z,1.50
2022-09-02T23:13:37.852Z,1.35
2022-09-02T23:16:45.044Z,1.27
2022-09-02T23:20:01.581Z,2.17
2022-09-02T23:22:54.610Z,1.40
2022-09-02T23:26:09.862Z,1.50
2022-09-02T23:29:15.796Z,1.38
2022-09-02T23:31:56.151Z,1.55
2022-09-02T23:35:00.533Z,1.50
2022-09-02T23:38:00.077Z,1.63
2022-09-02T23:40:34.389Z,1.40
2022-09-02T23:43:01.193Z,1.20
2022-09-02T23:45:30.478Z,1.50
2022-09-02T23:48:35.660Z,1.30
2022-09-02T23:51:47.741Z,1.45
2022-09-02T23:54:50.524Z,1.60
2022-09-02T23:58:00.752Z,1.80
